Time;durP1;ratioP1;P1;durP2;ratioP2;P2;SDS_P1;SDS_P2;PMS_P1;PMS_P2;Temp;Humidity;BMP_temperature;BMP_pressure;BME280_temperature;BME280_humidity;BME280_pressure;Samples;Min_cycle;Max_cycle;Signal;HPM_P1;HPM_P2
2023/03/22 00:01:22;;;;;;;1.43;1.33;;;18.30;63.10;;;;;;5082636;28;20637;-45
2023/03/22 00:03:55;;;;;;;1.67;1.20;;;18.20;63.00;;;;;;5106585;27;20188;-45
2023/03/22 00:06:27;;;;;;;1.73;1.50;;;18.30;63.00;;;;;;5082704;28;20193;-45
2023/03/22 00:08:58;;;;;;;2.33;1.20;;;18.20;62.90;;;;;;5108131;28;20245;-45
2023/03/22 00:11:26;;;;;;;1.83;1.23;;;18.20;63.00;;;;;;5106325;27;20206;-45
2023/03/22 00:13:57;;;;;;;1.90;1.50;;;18.20;63.00;;;;;;5088118;28;20212;-45
2023/03/22 00:16:35;;;;;;;1.93;1.33;;;18.20;62.90;;;;;;5105337;28;20199;-45
2023/03/22 00:19:06;;;;;;;1.53;1.43;;;18.20;62.90;;;;;;5107942;28;20645;-45
2023/03/22 00:21:38;;;;;;;1.90;1.30;;;18.20;62.90;;;;;;5102246;28;20201;-45
2023/03/22 00:24:06;;;;;;;1.90;1.20;;;18.20;62.90;;;;;;5080394;28;20192;-45
2023/03/22 00:26:38;;;;;;;2.50;1.50;;;18.20;62.90;;;;;;5110607;28;20211;-45
2023/03/22 00:29:06;;;;;;;2.37;1.60;;;18.20;62.90;;;;;;5106770;28;20597;-45
2023/03/22 00:31:37;;;;;;;2.13;1.50;;;18.20;62.90;;;;;;5094866;28;20767;-45
2023/03/22 00:34:06;;;;;;;1.63;1.30;;;18.20;62.90;;;;;;5103264;28;20701;-46
2023/03/22 00:36:36;;;;;;;1.70;1.13;;;18.20;62.80;;;;;;5081914;28;20180;-45
2023/03/22 00:39:08;;;;;;;2.57;1.60;;;18.20;62.80;;;;;;5106703;28;20636;-45
2023/03/22 00:41:39;;;;;;;3.07;1.57;;;18.20;62.80;;;;;;5111294;28;20207;-45
2023/03/22 00:44:10;;;;;;;2.10;1.20;;;18.20;62.80;;;;;;5108157;28;20618;-45
2023/03/22 00:46:55;;;;;;;2.03;1.47;;;18.20;62.90;;;;;;5115594;28;20303;-45
2023/03/22 00:49:26;;;;;;;2.67;1.47;;;18.20;62.80;;;;;;5108452;28;20209;-45
2023/03/22 00:52:08;;;;;;;2.60;1.63;;;18.20;62.80;;;;;;5091741;28;20829;-45
2023/03/22 00:54:37;;;;;;;1.97;1.43;;;18.20;62.70;;;;;;5108856;28;20220;-45
2023/03/22 00:57:21;;;;;;;2.23;1.53;;;18.20;62.70;;;;;;5110107;28;20244;-45
2023/03/22 00:59:52;;;;;;;2.53;1.60;;;18.20;62.70;;;;;;5084618;28;20638;-45
2023/03/22 01:02:28;;;;;;;2.20;1.47;;;18.20;62.70;;;;;;5107900;28;20184;-45
2023/03/22 01:04:59;;;;;;;1.90;1.40;;;18.20;62.70;;;;;;5107474;28;20742;-45
2023/03/22 01:07:28;;;;;;;2.00;1.60;;;18.20;62.70;;;;;;5090231;28;20247;-45
2023/03/22 01:10:00;;;;;;;2.30;1.50;;;18.20;62.70;;;;;;5087520;28;20192;-45
2023/03/22 01:12:31;;;;;;;2.03;1.60;;;18.20;62.70;;;;;;5108800;28;20255;-45
2023/03/22 01:15:01;;;;;;;1.77;1.43;;;18.10;62.60;;;;;;5107081;27;20705;-45
2023/03/22 01:17:34;;;;;;;2.10;1.50;;;18.10;62.60;;;;;;5094366;28;20796;-45
2023/03/22 01:20:08;;;;;;;1.70;1.37;;;18.10;62.60;;;;;;5110821;28;20379;-45
2023/03/22 01:22:38;;;;;;;2.07;1.67;;;18.20;62.60;;;;;;5091650;28;20212;-45
2023/03/22 01:25:05;;;;;;;3.33;1.97;;;18.10;63.20;;;;;;5092831;27;20205;-45
2023/03/22 01:27:34;;;;;;;2.27;1.57;;;18.10;62.60;;;;;;5111385;28;20200;-45
2023/03/22 01:30:05;;;;;;;2.53;1.70;;;18.10;62.60;;;;;;5090502;28;20246;-45
2023/03/22 01:32:36;;;;;;;2.50;1.63;;;18.10;62.50;;;;;;5109052;28;20248;-45
2023/03/22 01:35:07;;;;;;;5.10;1.97;;;18.10;62.60;;;;;;5083102;28;20220;-45
2023/03/22 01:37:39;;;;;;;2.60;1.60;;;18.10;62.50;;;;;;5111950;28;20241;-45
2023/03/22 01:40:13;;;;;;;2.23;1.70;;;18.10;62.50;;;;;;5113126;27;20205;-45
2023/03/22 01:42:44;;;;;;;2.93;1.87;;;18.10;62.50;;;;;;5086910;28;20696;-45
2023/03/22 01:45:38;;;;;;;3.10;1.80;;;18.10;62.50;;;;;;5111060;27;20199;-45
2023/03/22 01:48:44;;;;;;;2.97;1.67;;;18.10;62.50;;;;;;5091225;28;20198;-45
2023/03/22 01:51:19;;;;;;;2.43;1.93;;;18.10;62.40;;;;;;5100624;27;20191;-45
2023/03/22 01:53:59;;;;;;;1.80;1.70;;;18.10;62.40;;;;;;5096105;27;20191;-45
2023/03/22 01:56:34;;;;;;;2.37;2.00;;;18.10;62.40;;;;;;5110999;28;20200;-46
2023/03/22 01:59:09;;;;;;;2.57;2.07;;;18.10;62.30;;;;;;5086845;28;20784;-45
2023/03/22 02:01:41;;;;;;;2.27;1.90;;;18.10;62.40;;;;;;5116414;27;20215;-45
2023/03/22 02:04:22;;;;;;;2.50;2.00;;;18.10;62.30;;;;;;5096243;28;20195;-45
2023/03/22 02:06:56;;;;;;;2.37;1.87;;;18.10;62.40;;;;;;5094094;28;20211;-45
2023/03/22 02:09:45;;;;;;;2.53;2.20;;;18.10;62.30;;;;;;5094468;28;20275;-45
2023/03/22 02:12:34;;;;;;;4.13;2.47;;;18.10;62.20;;;;;;5108874;28;20204;-45
2023/03/22 02:15:07;;;;;;;2.33;2.00;;;18.00;62.20;;;;;;5110553;27;20211;-45
2023/03/22 02:18:00;;;;;;;2.70;1.90;;;18.10;62.30;;;;;;5113703;27;20216;-45
2023/03/22 02:21:07;;;;;;;4.70;2.10;;;18.10;62.20;;;;;;5100929;27;20190;-45
2023/03/22 02:24:10;;;;;;;3.83;2.20;;;18.10;62.20;;;;;;5113353;27;20191;-45
2023/03/22 02:27:20;;;;;;;3.03;2.40;;;18.00;62.10;;;;;;5121577;27;20615;-45
2023/03/22 02:30:24;;;;;;;3.27;1.97;;;18.10;62.10;;;;;;5105793;28;20247;-45
2023/03/22 02:33:14;;;;;;;5.70;2.63;;;18.00;62.10;;;;;;5111411;28;20594;-46
2023/03/22 02:36:21;;;;;;;3.20;2.63;;;18.00;62.10;;;;;;5101268;27;20201;-45
2023/03/22 02:39:26;;;;;;;3.17;2.17;;;18.00;62.10;;;;;;5079541;27;20238;-45
2023/03/22 02:42:26;;;;;;;2.83;2.07;;;18.00;62.10;;;;;;5107251;27;20199;-45
2023/03/22 02:45:28;;;;;;;2.73;2.30;;;18.00;62.10;;;;;;5108596;28;20637;-45
2023/03/22 02:48:10;;;;;;;2.60;2.13;;;18.00;62.10;;;;;;5103445;27;20292;-45
2023/03/22 02:51:00;;;;;;;2.67;2.20;;;18.00;62.00;;;;;;5098264;28;20196;-45
2023/03/22 02:53:54;;;;;;;2.97;2.10;;;18.00;62.10;;;;;;5092714;28;20188;-45
2023/03/22 02:56:44;;;;;;;3.23;2.07;;;18.00;62.00;;;;;;5109106;27;20200;-45
2023/03/22 02:59:13;;;;;;;3.77;2.20;;;18.00;62.10;;;;;;5107758;28;20231;-45
2023/03/22 03:01:57;;;;;;;2.53;2.20;;;18.00;62.00;;;;;;5113467;27;20558;-45
2023/03/22 03:04:32;;;;;;;3.00;2.30;;;18.00;61.90;;;;;;5076404;28;20228;-45
2023/03/22 03:07:09;;;;;;;4.03;2.60;;;18.00;62.00;;;;;;5084128;28;20199;-45
2023/03/22 03:09:46;;;;;;;2.53;1.80;;;18.00;62.00;;;;;;5107493;27;20193;-45
2023/03/22 03:12:22;;;;;;;2.90;1.77;;;18.00;61.90;;;;;;5081259;28;20519;-45
2023/03/22 03:14:51;;;;;;;3.20;2.00;;;18.00;61.90;;;;;;5086381;28;20563;-45
2023/03/22 03:17:54;;;;;;;2.97;2.17;;;18.00;62.00;;;;;;5092818;28;20196;-45
2023/03/22 03:20:46;;;;;;;1.80;1.63;;;17.90;61.90;;;;;;5091646;28;20200;-45
2023/03/22 03:23:39;;;;;;;3.00;1.93;;;18.00;62.00;;;;;;5119538;27;20670;-45
2023/03/22 03:26:51;;;;;;;2.03;1.70;;;18.00;61.90;;;;;;5091623;28;20217;-45
2023/03/22 03:29:53;;;;;;;1.97;1.70;;;18.00;62.00;;;;;;5093167;28;20311;-45
2023/03/22 03:32:59;;;;;;;3.30;2.00;;;18.00;61.90;;;;;;5094260;27;20203;-45
2023/03/22 03:36:04;;;;;;;5.13;1.90;;;18.00;61.90;;;;;;5099343;28;20626;-45
2023/03/22 03:38:42;;;;;;;2.23;1.83;;;17.90;61.80;;;;;;5022495;28;20228;-45
2023/03/22 03:41:35;;;;;;;2.60;1.60;;;17.90;61.90;;;;;;5108437;28;20736;-45
2023/03/22 03:44:10;;;;;;;2.10;1.70;;;17.90;61.90;;;;;;5103177;28;20622;-45
2023/03/22 03:46:43;;;;;;;3.40;1.93;;;18.00;62.50;;;;;;5087968;28;20284;-45
2023/03/22 03:49:15;;;;;;;2.87;2.10;;;18.00;61.80;;;;;;5104035;28;20200;-45
2023/03/22 03:51:53;;;;;;;2.57;1.80;;;17.90;61.80;;;;;;5075676;28;20205;-45
2023/03/22 03:54:37;;;;;;;2.20;1.87;;;17.90;61.70;;;;;;5068296;28;20224;-45
2023/03/22 03:57:06;;;;;;;2.47;2.10;;;18.00;61.80;;;;;;5108817;28;20228;-46
2023/03/22 03:59:36;;;;;;;1.97;1.70;;;17.90;61.70;;;;;;5105844;28;20231;-45
2023/03/22 04:02:08;;;;;;;2.00;1.47;;;17.90;61.70;;;;;;5106066;27;20210;-45
2023/03/22 04:04:41;;;;;;;3.57;1.60;;;17.90;61.70;;;;;;5105913;28;20249;-45
2023/03/22 04:07:12;;;;;;;2.03;1.70;;;18.00;61.70;;;;;;5111915;27;20193;-45
2023/03/22 04:09:42;;;;;;;3.47;1.87;;;17.90;61.70;;;;;;5103227;28;20207;-45
2023/03/22 04:12:13;;;;;;;2.23;1.70;;;17.90;61.70;;;;;;5094899;28;20203;-45
2023/03/22 04:14:44;;;;;;;2.70;1.70;;;17.90;61.70;;;;;;5108460;28;20786;-45
2023/03/22 04:17:22;;;;;;;2.73;1.67;;;17.90;61.70;;;;;;5096932;28;20192;-45
2023/03/22 04:19:55;;;;;;;1.90;1.60;;;18.00;61.70;;;;;;5104596;28;20786;-45
2023/03/22 04:22:27;;;;;;;2.37;1.57;;;17.90;61.70;;;;;;5094261;28;20887;-45
2023/03/22 04:24:58;;;;;;;1.90;1.43;;;17.90;61.70;;;;;;5108379;28;20200;-45
2023/03/22 04:27:42;;;;;;;1.97;1.40;;;18.00;61.80;;;;;;5113606;28;20282;-45
2023/03/22 04:30:17;;;;;;;2.57;1.43;;;17.90;61.70;;;;;;5070541;28;20735;-45
2023/03/22 04:32:48;;;;;;;1.97;1.50;;;17.90;61.70;;;;;;5072102;28;20185;-45
2023/03/22 04:35:20;;;;;;;2.13;1.47;;;17.90;61.70;;;;;;5093348;28;20224;-45
2023/03/22 04:37:50;;;;;;;1.40;1.30;;;17.90;61.70;;;;;;5079800;28;20230;-45
2023/03/22 04:40:20;;;;;;;1.17;1.03;;;17.90;61.70;;;;;;5099700;28;20218;-45
2023/03/22 04:42:56;;;;;;;1.57;1.37;;;17.90;61.70;;;;;;5065093;28;20197;-45
2023/03/22 04:45:31;;;;;;;1.93;1.40;;;17.90;61.70;;;;;;5072228;28;20196;-45
2023/03/22 04:48:02;;;;;;;1.83;1.20;;;17.80;61.50;;;;;;5067853;28;20209;-45
2023/03/22 04:50:32;;;;;;;1.67;1.43;;;17.90;61.60;;;;;;5092620;28;20200;-45
2023/03/22 04:53:02;;;;;;;3.30;1.93;;;17.90;61.60;;;;;;5087195;28;20206;-45
2023/03/22 04:55:44;;;;;;;1.43;1.17;;;17.90;61.50;;;;;;5085246;28;20205;-45
2023/03/22 04:58:15;;;;;;;3.20;1.20;;;17.80;61.50;;;;;;5100130;28;20262;-45
2023/03/22 05:00:52;;;;;;;1.23;1.10;;;17.80;61.50;;;;;;5100045;28;20578;-45
2023/03/22 05:03:22;;;;;;;2.10;1.40;;;17.90;61.50;;;;;;5076357;28;20188;-45
2023/03/22 05:06:09;;;;;;;2.60;1.57;;;17.90;61.50;;;;;;5065736;28;20201;-45
2023/03/22 05:08:38;;;;;;;6.00;1.73;;;17.80;61.60;;;;;;5052768;28;20194;-45
2023/03/22 05:11:15;;;;;;;4.87;1.57;;;17.80;61.80;;;;;;5064023;28;20669;-45
2023/03/22 05:13:44;;;;;;;3.30;1.20;;;17.90;61.70;;;;;;5061449;28;20692;-45
2023/03/22 05:16:16;;;;;;;2.67;1.10;;;17.80;61.60;;;;;;5085096;28;20506;-45
2023/03/22 05:18:53;;;;;;;3.23;1.17;;;17.80;61.60;;;;;;5093274;28;20224;-45
2023/03/22 05:21:28;;;;;;;1.53;1.20;;;17.80;61.60;;;;;;5095647;28;20602;-45
2023/03/22 05:23:57;;;;;;;3.33;1.43;;;17.80;61.60;;;;;;5080370;28;20207;-45
2023/03/22 05:26:28;;;;;;;1.93;1.30;;;17.80;61.60;;;;;;5083085;28;20617;-45
2023/03/22 05:28:59;;;;;;;5.60;1.27;;;17.90;61.60;;;;;;5099047;28;20239;-45
2023/03/22 05:31:33;;;;;;;1.80;1.40;;;17.90;61.60;;;;;;5109383;28;20538;-45
2023/03/22 05:34:08;;;;;;;2.03;1.30;;;17.90;61.60;;;;;;5082368;28;20216;-45
2023/03/22 05:36:38;;;;;;;2.93;1.60;;;17.80;61.50;;;;;;5112050;27;20204;-44
2023/03/22 05:39:09;;;;;;;1.23;0.83;;;17.80;61.50;;;;;;5107154;27;20236;-45
2023/03/22 05:41:38;;;;;;;2.50;1.10;;;17.90;61.50;;;;;;5110384;28;20241;-45
2023/03/22 05:44:07;;;;;;;1.53;1.40;;;17.80;61.40;;;;;;5110592;28;20754;-45
2023/03/22 05:46:38;;;;;;;3.53;1.63;;;17.80;61.40;;;;;;5098433;28;20212;-45
2023/03/22 05:49:06;;;;;;;3.27;1.40;;;17.80;61.40;;;;;;5094179;27;20601;-45
2023/03/22 05:51:41;;;;;;;2.17;1.20;;;17.80;61.40;;;;;;5119454;27;20196;-45
2023/03/22 05:54:13;;;;;;;2.93;1.30;;;17.80;61.30;;;;;;5090993;28;20587;-44
2023/03/22 05:56:44;;;;;;;1.60;1.10;;;17.80;61.30;;;;;;5106703;28;20202;-45
2023/03/22 05:59:18;;;;;;;3.60;1.50;;;17.80;61.20;;;;;;5103889;27;20562;-45
2023/03/22 06:01:49;;;;;;;3.20;1.10;;;17.80;61.70;;;;;;5104368;28;20200;-45
2023/03/22 06:04:21;;;;;;;2.63;1.23;;;17.80;61.00;;;;;;5110631;28;20192;-45
2023/03/22 06:06:52;;;;;;;2.70;1.67;;;17.80;61.00;;;;;;5099873;27;20521;-45
2023/03/22 06:09:23;;;;;;;3.73;1.23;;;17.80;61.00;;;;;;5089158;28;20274;-45
2023/03/22 06:11:54;;;;;;;3.60;1.67;;;17.80;61.20;;;;;;5090595;28;20627;-45
2023/03/22 06:14:24;;;;;;;3.07;1.30;;;17.80;61.20;;;;;;5115611;27;20219;-45
2023/03/22 06:16:54;;;;;;;2.77;1.37;;;17.80;61.80;;;;;;5099881;27;20231;-45
2023/03/22 06:19:25;;;;;;;9.13;1.60;;;17.80;61.20;;;;;;5102757;27;20227;-45
2023/03/22 06:21:56;;;;;;;4.73;1.47;;;17.80;61.60;;;;;;5097841;28;20640;-45
2023/03/22 06:24:26;;;;;;;3.93;1.40;;;17.80;61.60;;;;;;5101127;28;20215;-45
2023/03/22 06:26:57;;;;;;;7.53;2.03;;;17.80;61.60;;;;;;5110075;28;20212;-45
2023/03/22 06:29:31;;;;;;;3.40;1.60;;;17.80;61.60;;;;;;5105172;27;20661;-45
2023/03/22 06:31:59;;;;;;;3.33;1.23;;;17.80;61.40;;;;;;5099237;28;20196;-45
2023/03/22 06:34:35;;;;;;;4.80;1.73;;;17.80;61.40;;;;;;5099681;27;20231;-45
2023/03/22 06:37:04;;;;;;;7.77;1.97;;;17.80;61.30;;;;;;5102988;27;20208;-45
2023/03/22 06:39:37;;;;;;;7.10;1.97;;;17.80;61.20;;;;;;5109038;27;20223;-45
2023/03/22 06:42:06;;;;;;;2.97;1.37;;;17.80;61.00;;;;;;5099053;28;20197;-45
2023/03/22 06:44:33;;;;;;;6.87;1.73;;;17.90;61.10;;;;;;5110045;27;20683;-45
2023/03/22 06:47:04;;;;;;;6.17;1.53;;;17.90;61.00;;;;;;5057891;28;20691;-45
2023/03/22 06:49:36;;;;;;;4.70;1.53;;;17.90;60.70;;;;;;5088794;28;20200;-45
2023/03/22 06:52:04;;;;;;;3.80;1.80;;;18.00;60.70;;;;;;5102322;27;20201;-45
2023/03/22 06:54:36;;;;;;;5.50;1.57;;;18.00;60.60;;;;;;5112189;27;20192;-45
2023/03/22 06:57:06;;;;;;;2.60;1.30;;;18.00;60.50;;;;;;5092630;28;20243;-45
2023/03/22 06:59:34;;;;;;;3.67;1.40;;;18.10;60.40;;;;;;5082494;28;20236;-45
2023/03/22 07:02:05;;;;;;;3.50;1.37;;;18.10;60.20;;;;;;5106770;28;20180;-45
2023/03/22 07:04:33;;;;;;;4.50;1.40;;;18.10;60.00;;;;;;5090607;28;20653;-45
2023/03/22 07:07:02;;;;;;;3.33;1.33;;;18.10;59.80;;;;;;5105597;28;20212;-45
2023/03/22 07:09:34;;;;;;;3.60;1.27;;;18.20;59.80;;;;;;5099666;27;20585;-45
2023/03/22 07:12:07;;;;;;;6.10;1.33;;;18.20;59.80;;;;;;5104796;28;20656;-45
2023/03/22 07:14:35;;;;;;;3.67;1.10;;;18.20;59.80;;;;;;5110638;27;20824;-45
2023/03/22 07:17:04;;;;;;;10.87;2.13;;;18.20;59.80;;;;;;5091874;28;20257;-45
2023/03/22 07:19:33;;;;;;;19.03;3.67;;;18.20;59.90;;;;;;5111288;28;20249;-45
2023/03/22 07:22:04;;;;;;;10.53;3.17;;;18.40;60.50;;;;;;5105010;28;20204;-45
2023/03/22 07:24:36;;;;;;;19.70;2.93;;;18.40;60.70;;;;;;5096609;28;20215;-46
2023/03/22 07:27:22;;;;;;;6.63;2.37;;;18.50;60.30;;;;;;5100375;28;20202;-45
2023/03/22 07:29:56;;;;;;;12.77;2.67;;;18.50;60.40;;;;;;5091211;28;20264;-46
2023/03/22 07:32:28;;;;;;;5.17;2.07;;;18.60;60.80;;;;;;5081395;28;20194;-46
2023/03/22 07:34:59;;;;;;;8.57;2.03;;;18.60;60.70;;;;;;5084163;28;20219;-46
2023/03/22 07:37:32;;;;;;;7.10;2.20;;;18.70;60.70;;;;;;5082127;28;20193;-46
2023/03/22 07:40:03;;;;;;;5.63;2.40;;;18.70;60.60;;;;;;5070868;28;20217;-46
2023/03/22 07:42:34;;;;;;;4.63;1.90;;;18.80;59.90;;;;;;5082148;28;20193;-45
2023/03/22 07:45:23;;;;;;;5.07;2.00;;;18.90;60.00;;;;;;5079818;28;20181;-44
2023/03/22 07:47:58;;;;;;;5.83;1.77;;;18.90;59.50;;;;;;5080778;28;20205;-45
2023/03/22 07:50:31;;;;;;;7.03;2.30;;;19.00;59.50;;;;;;5089244;28;20214;-45
2023/03/22 07:53:05;;;;;;;5.80;1.60;;;19.00;59.20;;;;;;5091741;28;20759;-45
2023/03/22 07:55:38;;;;;;;4.53;1.83;;;19.00;58.80;;;;;;5074162;28;20205;-45
2023/03/22 07:58:11;;;;;;;4.00;1.63;;;19.10;59.10;;;;;;5080133;28;20213;-46
2023/03/22 08:00:42;;;;;;;6.63;2.03;;;19.20;58.80;;;;;;5079333;28;20694;-46
2023/03/22 08:03:14;;;;;;;5.77;1.53;;;19.20;58.80;;;;;;5064361;28;20209;-45
2023/03/22 08:05:47;;;;;;;3.77;1.60;;;19.30;58.90;;;;;;5078407;28;20226;-46
2023/03/22 08:08:21;;;;;;;4.00;1.57;;;19.30;58.30;;;;;;5078772;28;20197;-46
2023/03/22 08:10:50;;;;;;;4.20;1.50;;;19.40;58.00;;;;;;5073888;28;20573;-45
2023/03/22 08:13:19;;;;;;;3.87;1.60;;;19.40;57.60;;;;;;5086415;28;20275;-45
2023/03/22 08:15:50;;;;;;;2.07;1.40;;;19.40;57.50;;;;;;5078740;28;20615;-46
2023/03/22 08:18:23;;;;;;;2.43;1.23;;;19.50;57.60;;;;;;5075843;28;20196;-46
2023/03/22 08:21:03;;;;;;;5.33;1.77;;;19.50;56.90;;;;;;5064423;28;20225;-46
2023/03/22 08:23:33;;;;;;;3.30;1.37;;;19.60;57.40;;;;;;5085099;28;20218;-46
2023/03/22 08:26:12;;;;;;;3.30;1.40;;;19.60;57.40;;;;;;5081448;28;20646;-47
2023/03/22 08:28:55;;;;;;;4.93;1.73;;;19.60;57.50;;;;;;5084542;28;20355;-46
2023/03/22 08:31:28;;;;;;;2.50;1.23;;;19.70;57.20;;;;;;5121045;28;20228;-46
2023/03/22 08:33:57;;;;;;;7.03;1.63;;;19.70;57.10;;;;;;5086032;28;20965;-46
2023/03/22 08:36:30;;;;;;;5.77;1.73;;;19.80;57.00;;;;;;5106975;28;20196;-46
2023/03/22 08:39:00;;;;;;;4.23;1.60;;;19.80;56.80;;;;;;5107402;28;20223;-46
2023/03/22 08:41:31;;;;;;;5.73;1.20;;;19.80;56.50;;;;;;5106863;28;20631;-46
2023/03/22 08:44:03;;;;;;;2.80;1.40;;;19.90;56.30;;;;;;5096496;28;20492;-46
2023/03/22 08:46:34;;;;;;;5.53;1.43;;;19.90;56.30;;;;;;5102730;28;20674;-47
2023/03/22 08:49:03;;;;;;;2.50;1.13;;;19.90;55.90;;;;;;5099772;28;20219;-47
2023/03/22 08:51:47;;;;;;;2.30;1.20;;;19.90;55.80;;;;;;5098470;28;20259;-46
2023/03/22 08:54:18;;;;;;;2.03;1.00;;;19.90;56.30;;;;;;5106426;28;20189;-46
2023/03/22 08:56:50;;;;;;;2.33;1.13;;;20.00;56.10;;;;;;5103728;28;20200;-46
2023/03/22 08:59:19;;;;;;;4.90;1.40;;;20.00;55.90;;;;;;5106578;28;20224;-45
2023/03/22 09:01:51;;;;;;;3.40;1.43;;;20.00;56.30;;;;;;5112281;28;20192;-46
2023/03/22 09:04:21;;;;;;;2.97;1.17;;;20.10;55.80;;;;;;5112294;28;20191;-45
2023/03/22 09:06:53;;;;;;;2.63;1.27;;;20.10;55.90;;;;;;5102855;28;20563;-46
2023/03/22 09:09:23;;;;;;;3.77;1.30;;;20.10;55.90;;;;;;5119383;28;20223;-46
2023/03/22 09:11:50;;;;;;;3.57;1.33;;;20.10;55.40;;;;;;5120262;28;20219;-46
2023/03/22 09:14:21;;;;;;;3.87;1.20;;;20.20;55.20;;;;;;5108357;28;20192;-46
2023/03/22 09:16:50;;;;;;;2.43;1.20;;;20.20;55.30;;;;;;5108685;28;20606;-46
2023/03/22 09:19:20;;;;;;;3.20;1.27;;;20.30;55.20;;;;;;5106763;28;20219;-46
2023/03/22 09:21:52;;;;;;;1.77;0.90;;;20.30;55.20;;;;;;5100820;28;20571;-47
2023/03/22 09:24:21;;;;;;;3.53;1.10;;;20.30;55.20;;;;;;5105405;28;20201;-45
2023/03/22 09:26:49;;;;;;;3.50;1.27;;;20.30;55.50;;;;;;5091416;28;20203;-45
2023/03/22 09:29:18;;;;;;;4.37;1.37;;;20.30;55.30;;;;;;5103945;28;20804;-45
2023/03/22 09:31:48;;;;;;;2.60;1.30;;;20.30;55.10;;;;;;5099458;28;20552;-46
2023/03/22 09:34:30;;;;;;;1.73;1.10;;;20.40;54.90;;;;;;5105443;27;20200;-46
2023/03/22 09:37:02;;;;;;;3.37;1.30;;;20.30;54.90;;;;;;5083627;28;20200;-45
2023/03/22 09:39:33;;;;;;;2.43;1.00;;;20.40;55.10;;;;;;5102883;28;20231;-45
2023/03/22 09:42:05;;;;;;;1.70;1.00;;;20.40;54.90;;;;;;5103890;27;20195;-46
2023/03/22 09:44:42;;;;;;;3.17;1.10;;;20.40;54.70;;;;;;5083021;28;20249;-46
2023/03/22 09:47:19;;;;;;;2.50;1.20;;;20.50;54.80;;;;;;5096319;27;20216;-46
2023/03/22 09:49:55;;;;;;;4.63;1.00;;;20.50;54.70;;;;;;5076652;28;20220;-46
2023/03/22 09:52:24;;;;;;;1.33;0.90;;;20.50;54.60;;;;;;5088563;28;20727;-46
2023/03/22 09:54:57;;;;;;;2.53;1.10;;;20.50;54.70;;;;;;5100443;28;20188;-46
2023/03/22 09:57:36;;;;;;;3.97;1.57;;;20.60;54.70;;;;;;5102009;28;20230;-45
2023/03/22 10:00:32;;;;;;;3.37;1.20;;;20.60;54.60;;;;;;5098758;27;20593;-46
2023/03/22 10:03:46;;;;;;;4.07;1.30;;;20.70;54.50;;;;;;5098840;27;20199;-45
2023/03/22 10:06:22;;;;;;;2.93;1.43;;;20.70;54.40;;;;;;5016558;28;20215;-46
2023/03/22 10:09:27;;;;;;;3.53;1.50;;;20.70;54.70;;;;;;5082452;27;20271;-46
2023/03/22 10:12:52;;;;;;;2.60;1.20;;;20.70;54.50;;;;;;5102654;27;20192;-46
2023/03/22 10:15:32;;;;;;;2.13;1.30;;;20.80;54.70;;;;;;5045069;28;20199;-46
2023/03/22 10:18:05;;;;;;;2.93;1.03;;;20.70;54.50;;;;;;5092067;27;20207;-45
2023/03/22 10:21:06;;;;;;;2.60;0.93;;;20.70;54.50;;;;;;5092430;28;20216;-45
2023/03/22 10:24:21;;;;;;;2.90;1.00;;;20.70;54.90;;;;;;5080956;28;20207;-46
2023/03/22 10:26:51;;;;;;;2.87;1.10;;;20.70;55.10;;;;;;5075589;27;20204;-46
2023/03/22 10:29:38;;;;;;;3.07;1.00;;;20.60;55.40;;;;;;5112257;28;20235;-45
2023/03/22 10:32:25;;;;;;;4.63;1.47;;;20.60;55.50;;;;;;5110139;27;20196;-46
2023/03/22 10:34:55;;;;;;;3.27;1.30;;;20.60;55.10;;;;;;5112541;28;20212;-45
2023/03/22 10:37:33;;;;;;;3.03;1.13;;;20.60;55.30;;;;;;5091125;28;20489;-45
2023/03/22 10:40:05;;;;;;;2.83;1.20;;;20.60;55.60;;;;;;5058176;28;20646;-46
2023/03/22 10:42:38;;;;;;;3.60;1.40;;;20.60;55.10;;;;;;5091904;27;20214;-46
2023/03/22 10:45:14;;;;;;;1.70;1.00;;;20.60;55.20;;;;;;5082947;28;20188;-46
2023/03/22 10:48:03;;;;;;;3.30;1.13;;;20.60;54.90;;;;;;5085977;28;20180;-46
2023/03/22 10:50:38;;;;;;;2.87;1.27;;;20.60;54.90;;;;;;5101170;28;20212;-45
2023/03/22 10:53:17;;;;;;;3.33;1.23;;;20.70;55.20;;;;;;5102583;27;20236;-45
2023/03/22 10:55:45;;;;;;;4.90;1.43;;;20.70;55.50;;;;;;5086067;27;20686;-46
2023/03/22 10:58:15;;;;;;;3.57;1.00;;;20.80;55.40;;;;;;5117077;27;20610;-45
2023/03/22 11:01:01;;;;;;;3.17;1.20;;;20.80;55.20;;;;;;5107968;27;20200;-45
2023/03/22 11:03:43;;;;;;;4.07;1.40;;;20.80;54.40;;;;;;5104671;27;20232;-45
2023/03/22 11:06:28;;;;;;;4.43;1.30;;;20.70;54.90;;;;;;5082984;28;20633;-45
2023/03/22 11:09:01;;;;;;;3.47;1.37;;;20.60;55.20;;;;;;5105809;27;20188;-45
2023/03/22 11:11:37;;;;;;;2.67;1.17;;;20.50;55.40;;;;;;5086972;28;20239;-44
2023/03/22 11:14:20;;;;;;;3.67;1.40;;;20.40;55.80;;;;;;5079032;28;20224;-45
2023/03/22 11:17:11;;;;;;;5.37;1.40;;;20.40;55.70;;;;;;5089710;28;20188;-45
2023/03/22 11:20:09;;;;;;;4.80;1.20;;;20.30;56.00;;;;;;5077247;28;20216;-45
2023/03/22 11:22:48;;;;;;;5.07;1.07;;;20.30;56.10;;;;;;5078087;28;20213;-45
2023/03/22 11:25:42;;;;;;;2.47;1.00;;;20.20;56.30;;;;;;5098258;28;20189;-45
2023/03/22 11:28:41;;;;;;;1.40;0.97;;;20.20;56.40;;;;;;5096619;28;20216;-45
2023/03/22 11:31:24;;;;;;;2.73;1.00;;;20.10;56.60;;;;;;5095742;28;20255;-45
2023/03/22 11:34:00;;;;;;;1.97;1.00;;;20.10;56.40;;;;;;5095571;27;20197;-45
2023/03/22 11:36:30;;;;;;;3.63;1.30;;;20.10;56.30;;;;;;5094278;28;20216;-45
2023/03/22 11:39:05;;;;;;;3.03;1.40;;;20.10;56.20;;;;;;5088650;28;20278;-45
2023/03/22 11:41:37;;;;;;;3.70;1.33;;;20.00;56.40;;;;;;5062166;28;20214;-45
2023/03/22 11:44:10;;;;;;;2.47;0.97;;;20.00;56.50;;;;;;5051622;28;20208;-45
2023/03/22 11:47:03;;;;;;;3.37;1.03;;;20.00;56.60;;;;;;5104066;27;20203;-45
2023/03/22 11:49:49;;;;;;;4.87;1.20;;;20.00;56.40;;;;;;5100758;27;20224;-46
2023/03/22 11:52:23;;;;;;;3.23;1.43;;;19.90;56.20;;;;;;5084153;28;20237;-45
2023/03/22 11:55:06;;;;;;;4.03;1.50;;;20.00;56.80;;;;;;5090215;28;20286;-46
2023/03/22 11:57:54;;;;;;;3.17;0.90;;;19.90;56.70;;;;;;5105305;28;20196;-46
2023/03/22 12:00:29;;;;;;;2.57;1.10;;;19.90;56.90;;;;;;5107570;28;20220;-45
2023/03/22 12:03:18;;;;;;;6.27;1.17;;;20.00;57.00;;;;;;5085215;28;20243;-45
2023/03/22 12:05:50;;;;;;;2.10;0.83;;;19.90;56.40;;;;;;5070993;28;20191;-45
2023/03/22 12:08:44;;;;;;;3.53;1.00;;;19.90;56.40;;;;;;5085468;28;20249;-45
2023/03/22 12:11:32;;;;;;;2.07;0.83;;;19.90;56.40;;;;;;5095567;28;20193;-45
2023/03/22 12:14:24;;;;;;;3.23;1.10;;;19.90;56.50;;;;;;5075739;28;20522;-45
2023/03/22 12:17:11;;;;;;;2.37;0.97;;;19.80;56.60;;;;;;5095596;27;20203;-45
2023/03/22 12:20:14;;;;;;;3.10;1.10;;;19.80;56.60;;;;;;5094151;28;20557;-45
2023/03/22 12:22:52;;;;;;;2.30;0.90;;;19.70;57.20;;;;;;5004921;28;20211;-45
2023/03/22 12:25:33;;;;;;;2.13;0.93;;;19.60;56.80;;;;;;5005519;28;20219;-45
2023/03/22 12:28:08;;;;;;;3.03;1.00;;;19.60;56.80;;;;;;5000866;28;20207;-45
2023/03/22 12:30:57;;;;;;;3.30;1.00;;;19.60;57.20;;;;;;4985131;28;20215;-45
2023/03/22 12:33:43;;;;;;;2.73;1.27;;;19.60;57.20;;;;;;4992037;28;20337;-45
2023/03/22 12:36:44;;;;;;;2.57;0.93;;;19.50;57.30;;;;;;5005733;28;20219;-45
2023/03/22 12:39:42;;;;;;;1.97;1.17;;;19.50;57.10;;;;;;4983971;28;20215;-45
2023/03/22 12:42:26;;;;;;;3.70;1.13;;;19.50;57.70;;;;;;4979225;28;20214;-45
2023/03/22 12:45:08;;;;;;;2.40;1.13;;;19.50;57.50;;;;;;4992891;28;20211;-45
2023/03/22 12:47:48;;;;;;;2.13;0.90;;;19.40;57.50;;;;;;4993246;28;20567;-45
2023/03/22 12:50:51;;;;;;;2.60;1.10;;;19.40;57.30;;;;;;4989737;28;20241;-45
2023/03/22 12:53:26;;;;;;;2.37;1.07;;;19.30;57.40;;;;;;4995210;28;20578;-45
2023/03/22 12:55:59;;;;;;;2.13;0.93;;;19.30;57.60;;;;;;4993807;28;20199;-45
2023/03/22 12:58:32;;;;;;;1.67;0.73;;;19.30;57.70;;;;;;5040986;28;20217;-45
2023/03/22 13:01:23;;;;;;;2.20;0.70;;;19.30;57.70;;;;;;5092459;28;20597;-45
2023/03/22 13:04:39;;;;;;;3.17;0.93;;;19.30;57.70;;;;;;5093328;28;20265;-45
2023/03/22 13:07:30;;;;;;;1.27;0.80;;;19.20;57.80;;;;;;5074520;28;20296;-45
2023/03/22 13:10:35;;;;;;;2.07;0.80;;;19.20;57.70;;;;;;5083198;28;20258;-45
2023/03/22 13:13:26;;;;;;;3.37;1.07;;;19.20;57.70;;;;;;5082380;28;20193;-45
2023/03/22 13:16:21;;;;;;;3.10;0.90;;;19.10;58.00;;;;;;5078153;28;20561;-45
2023/03/22 13:18:57;;;;;;;3.23;0.70;;;19.10;57.50;;;;;;5091567;28;20229;-45
2023/03/22 13:21:31;;;;;;;3.27;1.07;;;19.10;58.10;;;;;;5088305;28;20217;-45
2023/03/22 13:24:15;;;;;;;2.37;0.90;;;19.10;57.70;;;;;;5096058;28;20250;-45
2023/03/22 13:26:50;;;;;;;2.77;1.03;;;19.10;57.80;;;;;;5076094;28;20277;-45
2023/03/22 13:29:36;;;;;;;2.77;0.80;;;19.10;57.40;;;;;;5101196;28;20235;-45
2023/03/22 13:32:28;;;;;;;2.80;0.80;;;19.10;57.30;;;;;;5099329;28;20200;-45
2023/03/22 13:34:56;;;;;;;4.93;0.80;;;19.10;58.00;;;;;;5093507;28;21061;-45
2023/03/22 13:37:55;;;;;;;4.53;1.27;;;19.10;57.80;;;;;;5096487;27;20223;-45
2023/03/22 13:40:45;;;;;;;2.00;0.90;;;19.00;57.70;;;;;;5109495;28;20208;-45